sensor_id;sensor_type;location;lat;lon;timestamp;P1;durP1;ratioP1;P2;durP2;ratioP2
80409;SDS011;69746;45.596;10.154;2023-11-21T00:00:20;4.40;;;2.50;;
80409;SDS011;69746;45.596;10.154;2023-11-21T00:02:46;4.07;;;2.78;;
80409;SDS011;69746;45.596;10.154;2023-11-21T00:05:13;3.88;;;2.47;;
80409;SDS011;69746;45.596;10.154;2023-11-21T00:07:41;4.35;;;2.60;;
80409;SDS011;69746;45.596;10.154;2023-11-21T00:10:08;4.47;;;2.72;;
80409;SDS011;69746;45.596;10.154;2023-11-21T00:12:35;4.43;;;2.40;;
80409;SDS011;69746;45.596;10.154;2023-11-21T00:15:01;3.40;;;2.47;;
80409;SDS011;69746;45.596;10.154;2023-11-21T00:17:34;3.42;;;2.42;;
80409;SDS011;69746;45.596;10.154;2023-11-21T00:20:00;5.65;;;3.13;;
80409;SDS011;69746;45.596;10.154;2023-11-21T00:22:26;3.88;;;2.47;;
80409;SDS011;69746;45.596;10.154;2023-11-21T00:24:52;3.63;;;2.47;;
80409;SDS011;69746;45.596;10.154;2023-11-21T00:27:18;4.55;;;2.30;;
80409;SDS011;69746;45.596;10.154;2023-11-21T00:29:44;4.13;;;2.75;;
80409;SDS011;69746;45.596;10.154;2023-11-21T00:32:09;4.82;;;2.65;;
80409;SDS011;69746;45.596;10.154;2023-11-21T00:34:35;3.55;;;2.60;;
80409;SDS011;69746;45.596;10.154;2023-11-21T00:37:01;4.75;;;2.78;;
80409;SDS011;69746;45.596;10.154;2023-11-21T00:39:28;4.28;;;2.80;;
80409;SDS011;69746;45.596;10.154;2023-11-21T00:41:54;4.15;;;2.60;;
80409;SDS011;69746;45.596;10.154;2023-11-21T00:44:20;3.72;;;2.63;;
80409;SDS011;69746;45.596;10.154;2023-11-21T00:46:46;4.22;;;2.60;;
80409;SDS011;69746;45.596;10.154;2023-11-21T00:49:12;4.10;;;2.50;;
80409;SDS011;69746;45.596;10.154;2023-11-21T00:51:38;3.63;;;2.45;;
80409;SDS011;69746;45.596;10.154;2023-11-21T00:54:04;4.55;;;2.40;;
80409;SDS011;69746;45.596;10.154;2023-11-21T00:56:32;3.88;;;2.35;;
80409;SDS011;69746;45.596;10.154;2023-11-21T00:58:59;4.28;;;2.70;;
80409;SDS011;69746;45.596;10.154;2023-11-21T01:01:25;3.38;;;2.70;;
80409;SDS011;69746;45.596;10.154;2023-11-21T01:03:51;4.63;;;2.60;;
80409;SDS011;69746;45.596;10.154;2023-11-21T01:06:17;3.08;;;2.00;;
80409;SDS011;69746;45.596;10.154;2023-11-21T01:08:43;3.05;;;2.30;;
80409;SDS011;69746;45.596;10.154;2023-11-21T01:11:10;3.97;;;2.53;;
80409;SDS011;69746;45.596;10.154;2023-11-21T01:13:38;3.35;;;2.00;;
80409;SDS011;69746;45.596;10.154;2023-11-21T01:16:04;3.65;;;2.40;;
80409;SDS011;69746;45.596;10.154;2023-11-21T01:18:31;3.80;;;2.70;;
80409;SDS011;69746;45.596;10.154;2023-11-21T01:20:58;3.60;;;2.65;;
80409;SDS011;69746;45.596;10.154;2023-11-21T01:23:26;4.35;;;2.67;;
80409;SDS011;69746;45.596;10.154;2023-11-21T01:25:52;4.05;;;2.30;;
80409;SDS011;69746;45.596;10.154;2023-11-21T01:28:18;3.63;;;2.65;;
80409;SDS011;69746;45.596;10.154;2023-11-21T01:30:45;3.28;;;2.42;;
80409;SDS011;69746;45.596;10.154;2023-11-21T01:33:11;3.53;;;2.42;;
80409;SDS011;69746;45.596;10.154;2023-11-21T01:35:37;4.03;;;2.78;;
80409;SDS011;69746;45.596;10.154;2023-11-21T01:38:03;3.25;;;2.47;;
80409;SDS011;69746;45.596;10.154;2023-11-21T01:40:32;4.30;;;2.30;;
80409;SDS011;69746;45.596;10.154;2023-11-21T01:42:57;4.35;;;2.40;;
80409;SDS011;69746;45.596;10.154;2023-11-21T01:45:23;2.90;;;1.98;;
80409;SDS011;69746;45.596;10.154;2023-11-21T01:47:51;3.53;;;2.58;;
80409;SDS011;69746;45.596;10.154;2023-11-21T01:50:17;4.35;;;2.67;;
80409;SDS011;69746;45.596;10.154;2023-11-21T01:52:44;4.03;;;2.30;;
80409;SDS011;69746;45.596;10.154;2023-11-21T01:55:11;4.03;;;2.60;;
80409;SDS011;69746;45.596;10.154;2023-11-21T01:57:43;3.58;;;2.78;;
80409;SDS011;69746;45.596;10.154;2023-11-21T02:00:09;4.22;;;3.42;;
80409;SDS011;69746;45.596;10.154;2023-11-21T02:02:46;3.28;;;2.40;;
80409;SDS011;69746;45.596;10.154;2023-11-21T02:05:14;3.95;;;2.90;;
80409;SDS011;69746;45.596;10.154;2023-11-21T02:07:43;5.50;;;2.60;;
80409;SDS011;69746;45.596;10.154;2023-11-21T02:10:10;4.20;;;2.70;;
80409;SDS011;69746;45.596;10.154;2023-11-21T02:12:40;3.40;;;2.40;;
80409;SDS011;69746;45.596;10.154;2023-11-21T02:15:08;3.75;;;2.42;;
80409;SDS011;69746;45.596;10.154;2023-11-21T02:17:42;3.20;;;2.45;;
80409;SDS011;69746;45.596;10.154;2023-11-21T02:20:13;3.10;;;2.30;;
80409;SDS011;69746;45.596;10.154;2023-11-21T02:27:49;3.70;;;2.53;;
80409;SDS011;69746;45.596;10.154;2023-11-21T02:30:16;3.60;;;2.80;;
80409;SDS011;69746;45.596;10.154;2023-11-21T02:32:44;3.15;;;2.40;;
80409;SDS011;69746;45.596;10.154;2023-11-21T02:35:09;4.43;;;2.33;;
80409;SDS011;69746;45.596;10.154;2023-11-21T02:37:37;4.07;;;2.47;;
80409;SDS011;69746;45.596;10.154;2023-11-21T02:40:04;3.88;;;2.60;;
80409;SDS011;69746;45.596;10.154;2023-11-21T02:42:35;3.75;;;2.45;;
80409;SDS011;69746;45.596;10.154;2023-11-21T02:45:00;3.67;;;2.20;;
80409;SDS011;69746;45.596;10.154;2023-11-21T02:47:26;3.97;;;2.58;;
80409;SDS011;69746;45.596;10.154;2023-11-21T02:49:52;3.30;;;2.50;;
80409;SDS011;69746;45.596;10.154;2023-11-21T02:52:18;3.35;;;2.58;;
80409;SDS011;69746;45.596;10.154;2023-11-21T02:54:44;4.00;;;2.25;;
80409;SDS011;69746;45.596;10.154;2023-11-21T02:57:10;3.20;;;2.47;;
80409;SDS011;69746;45.596;10.154;2023-11-21T02:59:36;2.88;;;2.28;;
80409;SDS011;69746;45.596;10.154;2023-11-21T03:02:02;4.10;;;2.38;;
80409;SDS011;69746;45.596;10.154;2023-11-21T03:04:28;3.58;;;2.47;;
80409;SDS011;69746;45.596;10.154;2023-11-21T03:06:54;3.35;;;2.38;;
80409;SDS011;69746;45.596;10.154;2023-11-21T03:09:20;3.30;;;2.33;;
80409;SDS011;69746;45.596;10.154;2023-11-21T03:11:45;3.38;;;2.53;;
80409;SDS011;69746;45.596;10.154;2023-11-21T03:14:11;3.08;;;2.47;;
80409;SDS011;69746;45.596;10.154;2023-11-21T03:16:37;3.95;;;2.60;;
80409;SDS011;69746;45.596;10.154;2023-11-21T03:19:03;3.13;;;2.20;;
80409;SDS011;69746;45.596;10.154;2023-11-21T03:21:30;3.55;;;2.40;;
80409;SDS011;69746;45.596;10.154;2023-11-21T03:23:56;3.60;;;2.35;;
80409;SDS011;69746;45.596;10.154;2023-11-21T03:26:22;3.25;;;2.35;;
80409;SDS011;69746;45.596;10.154;2023-11-21T03:28:48;3.15;;;2.33;;
80409;SDS011;69746;45.596;10.154;2023-11-21T03:31:14;3.03;;;2.20;;
80409;SDS011;69746;45.596;10.154;2023-11-21T03:33:42;4.15;;;2.38;;
80409;SDS011;69746;45.596;10.154;2023-11-21T03:36:08;4.00;;;2.65;;
80409;SDS011;69746;45.596;10.154;2023-11-21T03:38:34;4.05;;;2.60;;
80409;SDS011;69746;45.596;10.154;2023-11-21T03:41:04;3.30;;;2.35;;
80409;SDS011;69746;45.596;10.154;2023-11-21T03:43:30;3.25;;;2.30;;
80409;SDS011;69746;45.596;10.154;2023-11-21T03:45:56;3.10;;;2.17;;
80409;SDS011;69746;45.596;10.154;2023-11-21T03:48:22;3.30;;;2.17;;
80409;SDS011;69746;45.596;10.154;2023-11-21T03:50:51;3.13;;;1.92;;
80409;SDS011;69746;45.596;10.154;2023-11-21T03:53:16;3.40;;;2.40;;
80409;SDS011;69746;45.596;10.154;2023-11-21T03:55:42;3.88;;;2.70;;
80409;SDS011;69746;45.596;10.154;2023-11-21T03:58:08;3.60;;;2.50;;
80409;SDS011;69746;45.596;10.154;2023-11-21T04:00:36;3.22;;;2.40;;
80409;SDS011;69746;45.596;10.154;2023-11-21T04:03:02;3.05;;;2.38;;
80409;SDS011;69746;45.596;10.154;2023-11-21T04:05:28;3.30;;;2.38;;
80409;SDS011;69746;45.596;10.154;2023-11-21T04:07:54;3.60;;;2.50;;
80409;SDS011;69746;45.596;10.154;2023-11-21T04:10:20;3.30;;;2.38;;
80409;SDS011;69746;45.596;10.154;2023-11-21T04:12:47;2.80;;;2.20;;
80409;SDS011;69746;45.596;10.154;2023-11-21T04:15:13;3.50;;;2.40;;
80409;SDS011;69746;45.596;10.154;2023-11-21T04:17:40;3.35;;;2.40;;
80409;SDS011;69746;45.596;10.154;2023-11-21T04:20:07;4.50;;;2.30;;
80409;SDS011;69746;45.596;10.154;2023-11-21T04:22:41;4.00;;;2.80;;
80409;SDS011;69746;45.596;10.154;2023-11-21T04:25:12;3.45;;;2.30;;
80409;SDS011;69746;45.596;10.154;2023-11-21T04:27:40;3.63;;;2.50;;
80409;SDS011;69746;45.596;10.154;2023-11-21T04:30:12;5.05;;;2.45;;
80409;SDS011;69746;45.596;10.154;2023-11-21T04:32:38;4.15;;;2.60;;
80409;SDS011;69746;45.596;10.154;2023-11-21T04:35:04;3.58;;;2.63;;
80409;SDS011;69746;45.596;10.154;2023-11-21T04:37:31;3.17;;;2.47;;
80409;SDS011;69746;45.596;10.154;2023-11-21T04:39:59;4.25;;;2.58;;
80409;SDS011;69746;45.596;10.154;2023-11-21T04:42:25;3.40;;;2.20;;
80409;SDS011;69746;45.596;10.154;2023-11-21T04:44:51;3.55;;;2.60;;
80409;SDS011;69746;45.596;10.154;2023-11-21T04:47:18;3.28;;;2.30;;
80409;SDS011;69746;45.596;10.154;2023-11-21T04:49:45;4.28;;;2.55;;
80409;SDS011;69746;45.596;10.154;2023-11-21T04:52:13;3.55;;;2.45;;
80409;SDS011;69746;45.596;10.154;2023-11-21T04:54:39;3.90;;;2.38;;
80409;SDS011;69746;45.596;10.154;2023-11-21T04:57:05;4.07;;;2.67;;
80409;SDS011;69746;45.596;10.154;2023-11-21T04:59:35;3.55;;;2.38;;
80409;SDS011;69746;45.596;10.154;2023-11-21T05:02:01;3.10;;;2.30;;
80409;SDS011;69746;45.596;10.154;2023-11-21T05:04:28;3.88;;;2.50;;
80409;SDS011;69746;45.596;10.154;2023-11-21T05:06:54;3.55;;;2.55;;
80409;SDS011;69746;45.596;10.154;2023-11-21T05:09:23;3.45;;;2.45;;
80409;SDS011;69746;45.596;10.154;2023-11-21T05:11:49;3.60;;;2.60;;
80409;SDS011;69746;45.596;10.154;2023-11-21T05:14:15;3.45;;;2.30;;
80409;SDS011;69746;45.596;10.154;2023-11-21T05:16:41;3.40;;;2.40;;
80409;SDS011;69746;45.596;10.154;2023-11-21T05:19:07;4.00;;;2.20;;
80409;SDS011;69746;45.596;10.154;2023-11-21T05:21:34;3.35;;;2.50;;
80409;SDS011;69746;45.596;10.154;2023-11-21T05:24:01;4.38;;;2.50;;
80409;SDS011;69746;45.596;10.154;2023-11-21T05:26:27;4.55;;;2.50;;
80409;SDS011;69746;45.596;10.154;2023-11-21T05:28:53;3.13;;;2.42;;
80409;SDS011;69746;45.596;10.154;2023-11-21T05:31:22;3.53;;;2.65;;
80409;SDS011;69746;45.596;10.154;2023-11-21T05:33:48;3.13;;;2.42;;
80409;SDS011;69746;45.596;10.154;2023-11-21T05:36:13;3.65;;;2.50;;
80409;SDS011;69746;45.596;10.154;2023-11-21T05:38:39;3.47;;;2.45;;
80409;SDS011;69746;45.596;10.154;2023-11-21T05:41:06;3.25;;;2.40;;
80409;SDS011;69746;45.596;10.154;2023-11-21T05:43:35;3.78;;;2.67;;
80409;SDS011;69746;45.596;10.154;2023-11-21T05:46:01;3.65;;;2.22;;
80409;SDS011;69746;45.596;10.154;2023-11-21T05:48:26;3.58;;;2.70;;
80409;SDS011;69746;45.596;10.154;2023-11-21T05:50:52;3.33;;;2.40;;
80409;SDS011;69746;45.596;10.154;2023-11-21T05:53:18;3.95;;;2.60;;
80409;SDS011;69746;45.596;10.154;2023-11-21T05:55:44;3.58;;;2.72;;
80409;SDS011;69746;45.596;10.154;2023-11-21T05:58:10;3.70;;;2.67;;
80409;SDS011;69746;45.596;10.154;2023-11-21T06:00:39;3.40;;;2.70;;
80409;SDS011;69746;45.596;10.154;2023-11-21T06:03:05;4.70;;;3.00;;
80409;SDS011;69746;45.596;10.154;2023-11-21T06:05:32;3.60;;;2.70;;
80409;SDS011;69746;45.596;10.154;2023-11-21T06:08:01;3.72;;;2.70;;
80409;SDS011;69746;45.596;10.154;2023-11-21T06:10:27;3.45;;;2.40;;
80409;SDS011;69746;45.596;10.154;2023-11-21T06:12:54;4.00;;;2.15;;
80409;SDS011;69746;45.596;10.154;2023-11-21T06:15:19;3.75;;;2.63;;
80409;SDS011;69746;45.596;10.154;2023-11-21T06:17:47;4.35;;;2.50;;
80409;SDS011;69746;45.596;10.154;2023-11-21T06:20:20;4.00;;;2.58;;
80409;SDS011;69746;45.596;10.154;2023-11-21T06:22:48;12.70;;;3.95;;
80409;SDS011;69746;45.596;10.154;2023-11-21T06:27:43;11.02;;;4.13;;
80409;SDS011;69746;45.596;10.154;2023-11-21T06:30:10;14.63;;;5.03;;
80409;SDS011;69746;45.596;10.154;2023-11-21T06:32:37;11.05;;;4.20;;
80409;SDS011;69746;45.596;10.154;2023-11-21T06:35:05;9.82;;;4.65;;
80409;SDS011;69746;45.596;10.154;2023-11-21T06:37:31;9.73;;;4.60;;
80409;SDS011;69746;45.596;10.154;2023-11-21T06:40:00;6.43;;;3.75;;
80409;SDS011;69746;45.596;10.154;2023-11-21T06:42:26;10.00;;;4.10;;
80409;SDS011;69746;45.596;10.154;2023-11-21T06:44:54;11.30;;;3.55;;
80409;SDS011;69746;45.596;10.154;2023-11-21T06:47:23;8.25;;;3.38;;
80409;SDS011;69746;45.596;10.154;2023-11-21T06:57:07;5.40;;;3.40;;
80409;SDS011;69746;45.596;10.154;2023-11-21T06:59:33;6.15;;;4.20;;
80409;SDS011;69746;45.596;10.154;2023-11-21T07:02:01;7.45;;;3.97;;
80409;SDS011;69746;45.596;10.154;2023-11-21T07:04:27;9.05;;;3.42;;
80409;SDS011;69746;45.596;10.154;2023-11-21T07:06:53;6.13;;;3.22;;
80409;SDS011;69746;45.596;10.154;2023-11-21T07:09:20;8.35;;;3.97;;
80409;SDS011;69746;45.596;10.154;2023-11-21T07:11:48;4.95;;;3.30;;
80409;SDS011;69746;45.596;10.154;2023-11-21T07:14:15;5.22;;;3.80;;
80409;SDS011;69746;45.596;10.154;2023-11-21T07:16:42;9.30;;;4.10;;
80409;SDS011;69746;45.596;10.154;2023-11-21T07:19:08;6.75;;;3.60;;
80409;SDS011;69746;45.596;10.154;2023-11-21T07:21:35;7.25;;;3.13;;
80409;SDS011;69746;45.596;10.154;2023-11-21T07:24:04;6.50;;;3.00;;
80409;SDS011;69746;45.596;10.154;2023-11-21T07:26:32;6.72;;;3.35;;
80409;SDS011;69746;45.596;10.154;2023-11-21T07:28:58;6.55;;;3.00;;
80409;SDS011;69746;45.596;10.154;2023-11-21T07:31:25;5.70;;;3.38;;
80409;SDS011;69746;45.596;10.154;2023-11-21T07:33:51;5.68;;;3.17;;
80409;SDS011;69746;45.596;10.154;2023-11-21T07:36:18;6.53;;;3.20;;
80409;SDS011;69746;45.596;10.154;2023-11-21T07:38:46;7.93;;;3.15;;
80409;SDS011;69746;45.596;10.154;2023-11-21T07:41:13;6.10;;;3.25;;
80409;SDS011;69746;45.596;10.154;2023-11-21T07:43:43;7.45;;;2.78;;
80409;SDS011;69746;45.596;10.154;2023-11-21T07:46:09;6.03;;;3.05;;
80409;SDS011;69746;45.596;10.154;2023-11-21T07:48:38;6.18;;;3.30;;
80409;SDS011;69746;45.596;10.154;2023-11-21T07:51:04;5.32;;;3.30;;
80409;SDS011;69746;45.596;10.154;2023-11-21T07:53:32;6.85;;;2.63;;
80409;SDS011;69746;45.596;10.154;2023-11-21T07:56:05;5.88;;;3.22;;
80409;SDS011;69746;45.596;10.154;2023-11-21T07:58:33;5.15;;;3.15;;
80409;SDS011;69746;45.596;10.154;2023-11-21T08:01:00;4.05;;;2.67;;
80409;SDS011;69746;45.596;10.154;2023-11-21T08:03:25;4.30;;;2.80;;
80409;SDS011;69746;45.596;10.154;2023-11-21T08:05:52;7.53;;;2.80;;
80409;SDS011;69746;45.596;10.154;2023-11-21T08:08:18;5.90;;;3.13;;
80409;SDS011;69746;45.596;10.154;2023-11-21T08:10:44;4.80;;;2.97;;
80409;SDS011;69746;45.596;10.154;2023-11-21T08:13:16;4.80;;;3.13;;
80409;SDS011;69746;45.596;10.154;2023-11-21T08:15:42;4.63;;;2.50;;
80409;SDS011;69746;45.596;10.154;2023-11-21T08:18:11;4.95;;;3.13;;
80409;SDS011;69746;45.596;10.154;2023-11-21T08:20:38;4.82;;;2.90;;
80409;SDS011;69746;45.596;10.154;2023-11-21T08:23:05;4.40;;;3.00;;
80409;SDS011;69746;45.596;10.154;2023-11-21T08:25:31;4.20;;;2.85;;
80409;SDS011;69746;45.596;10.154;2023-11-21T08:27:58;4.35;;;2.47;;
80409;SDS011;69746;45.596;10.154;2023-11-21T08:30:24;5.18;;;2.83;;
80409;SDS011;69746;45.596;10.154;2023-11-21T08:32:50;5.35;;;2.90;;
80409;SDS011;69746;45.596;10.154;2023-11-21T08:35:19;4.80;;;2.90;;
80409;SDS011;69746;45.596;10.154;2023-11-21T08:37:45;5.05;;;2.85;;
80409;SDS011;69746;45.596;10.154;2023-11-21T08:40:11;4.43;;;2.50;;
80409;SDS011;69746;45.596;10.154;2023-11-21T08:42:41;4.25;;;2.63;;
80409;SDS011;69746;45.596;10.154;2023-11-21T08:45:08;3.47;;;2.17;;
80409;SDS011;69746;45.596;10.154;2023-11-21T08:47:35;4.72;;;2.80;;
80409;SDS011;69746;45.596;10.154;2023-11-21T08:50:02;5.50;;;3.17;;
80409;SDS011;69746;45.596;10.154;2023-11-21T08:52:28;3.72;;;2.63;;
80409;SDS011;69746;45.596;10.154;2023-11-21T08:54:53;5.05;;;2.60;;
80409;SDS011;69746;45.596;10.154;2023-11-21T08:57:22;6.30;;;2.88;;
80409;SDS011;69746;45.596;10.154;2023-11-21T08:59:48;4.03;;;2.88;;
80409;SDS011;69746;45.596;10.154;2023-11-21T09:02:14;4.20;;;2.70;;
80409;SDS011;69746;45.596;10.154;2023-11-21T09:04:42;4.45;;;2.90;;
80409;SDS011;69746;45.596;10.154;2023-11-21T09:07:08;5.70;;;2.85;;
80409;SDS011;69746;45.596;10.154;2023-11-21T09:09:37;4.20;;;2.70;;
80409;SDS011;69746;45.596;10.154;2023-11-21T09:12:03;4.85;;;2.60;;
80409;SDS011;69746;45.596;10.154;2023-11-21T09:14:30;3.35;;;2.47;;
80409;SDS011;69746;45.596;10.154;2023-11-21T09:16:56;6.80;;;2.83;;
80409;SDS011;69746;45.596;10.154;2023-11-21T09:19:21;5.18;;;2.78;;
80409;SDS011;69746;45.596;10.154;2023-11-21T09:21:47;4.47;;;2.60;;
80409;SDS011;69746;45.596;10.154;2023-11-21T09:24:15;3.30;;;2.40;;
80409;SDS011;69746;45.596;10.154;2023-11-21T09:26:42;4.05;;;2.60;;
80409;SDS011;69746;45.596;10.154;2023-11-21T09:29:09;3.42;;;2.25;;
80409;SDS011;69746;45.596;10.154;2023-11-21T09:31:37;3.65;;;2.13;;
80409;SDS011;69746;45.596;10.154;2023-11-21T09:34:10;3.22;;;2.00;;
80409;SDS011;69746;45.596;10.154;2023-11-21T09:36:36;3.85;;;2.55;;
80409;SDS011;69746;45.596;10.154;2023-11-21T09:39:04;4.40;;;2.20;;
80409;SDS011;69746;45.596;10.154;2023-11-21T09:41:40;3.90;;;2.67;;
80409;SDS011;69746;45.596;10.154;2023-11-21T09:44:20;5.00;;;2.75;;
80409;SDS011;69746;45.596;10.154;2023-11-21T09:46:59;4.40;;;2.35;;
80409;SDS011;69746;45.596;10.154;2023-11-21T09:49:25;3.47;;;2.42;;
80409;SDS011;69746;45.596;10.154;2023-11-21T09:51:55;3.78;;;2.28;;
80409;SDS011;69746;45.596;10.154;2023-11-21T09:54:23;3.85;;;2.40;;
80409;SDS011;69746;45.596;10.154;2023-11-21T09:56:50;3.47;;;2.65;;
80409;SDS011;69746;45.596;10.154;2023-11-21T09:59:16;3.50;;;2.40;;
80409;SDS011;69746;45.596;10.154;2023-11-21T10:01:45;3.67;;;2.47;;
80409;SDS011;69746;45.596;10.154;2023-11-21T10:04:11;4.32;;;2.67;;
80409;SDS011;69746;45.596;10.154;2023-11-21T10:06:39;4.78;;;2.70;;
80409;SDS011;69746;45.596;10.154;2023-11-21T10:09:12;4.43;;;2.83;;
80409;SDS011;69746;45.596;10.154;2023-11-21T10:11:41;4.03;;;2.67;;
80409;SDS011;69746;45.596;10.154;2023-11-21T10:14:10;4.68;;;2.60;;
80409;SDS011;69746;45.596;10.154;2023-11-21T10:16:40;3.28;;;2.20;;
80409;SDS011;69746;45.596;10.154;2023-11-21T10:19:11;3.75;;;2.47;;
80409;SDS011;69746;45.596;10.154;2023-11-21T10:21:41;3.33;;;2.30;;
80409;SDS011;69746;45.596;10.154;2023-11-21T10:24:07;4.03;;;2.55;;
80409;SDS011;69746;45.596;10.154;2023-11-21T10:26:33;3.10;;;2.10;;
80409;SDS011;69746;45.596;10.154;2023-11-21T10:29:00;4.07;;;2.05;;
80409;SDS011;69746;45.596;10.154;2023-11-21T10:31:30;3.90;;;2.70;;
80409;SDS011;69746;45.596;10.154;2023-11-21T10:34:11;3.15;;;2.40;;
80409;SDS011;69746;45.596;10.154;2023-11-21T10:36:41;3.38;;;2.38;;
80409;SDS011;69746;45.596;10.154;2023-11-21T10:39:07;3.75;;;2.50;;
80409;SDS011;69746;45.596;10.154;2023-11-21T10:41:33;3.28;;;2.38;;
80409;SDS011;69746;45.596;10.154;2023-11-21T10:44:03;3.53;;;2.10;;
80409;SDS011;69746;45.596;10.154;2023-11-21T10:46:31;3.13;;;2.17;;
80409;SDS011;69746;45.596;10.154;2023-11-21T10:48:58;3.53;;;2.40;;
80409;SDS011;69746;45.596;10.154;2023-11-21T10:51:25;3.25;;;2.30;;
80409;SDS011;69746;45.596;10.154;2023-11-21T10:53:53;4.05;;;2.33;;
80409;SDS011;69746;45.596;10.154;2023-11-21T10:56:19;3.35;;;2.00;;
80409;SDS011;69746;45.596;10.154;2023-11-21T10:58:49;2.80;;;2.20;;
80409;SDS011;69746;45.596;10.154;2023-11-21T11:01:17;3.65;;;2.33;;
80409;SDS011;69746;45.596;10.154;2023-11-21T11:03:49;3.60;;;2.30;;
80409;SDS011;69746;45.596;10.154;2023-11-21T11:06:20;3.00;;;2.15;;
80409;SDS011;69746;45.596;10.154;2023-11-21T11:08:47;4.13;;;2.13;;
80409;SDS011;69746;45.596;10.154;2023-11-21T11:11:14;3.03;;;2.17;;
80409;SDS011;69746;45.596;10.154;2023-11-21T11:13:43;3.10;;;2.42;;
80409;SDS011;69746;45.596;10.154;2023-11-21T11:16:12;2.97;;;2.25;;
80409;SDS011;69746;45.596;10.154;2023-11-21T11:18:42;3.10;;;2.30;;
80409;SDS011;69746;45.596;10.154;2023-11-21T11:26:42;3.90;;;2.30;;
80409;SDS011;69746;45.596;10.154;2023-11-21T11:32:10;3.70;;;2.55;;
80409;SDS011;69746;45.596;10.154;2023-11-21T11:37:40;3.10;;;2.20;;
80409;SDS011;69746;45.596;10.154;2023-11-21T11:40:06;3.05;;;2.40;;
80409;SDS011;69746;45.596;10.154;2023-11-21T11:42:32;3.58;;;2.55;;
80409;SDS011;69746;45.596;10.154;2023-11-21T11:45:01;3.03;;;2.13;;
80409;SDS011;69746;45.596;10.154;2023-11-21T11:47:31;3.00;;;2.33;;
80409;SDS011;69746;45.596;10.154;2023-11-21T11:50:08;3.00;;;2.33;;
80409;SDS011;69746;45.596;10.154;2023-11-21T11:52:45;3.40;;;2.10;;
80409;SDS011;69746;45.596;10.154;2023-11-21T11:55:13;3.00;;;2.10;;
80409;SDS011;69746;45.596;10.154;2023-11-21T11:57:44;4.13;;;2.28;;
80409;SDS011;69746;45.596;10.154;2023-11-21T12:00:15;3.20;;;2.38;;
80409;SDS011;69746;45.596;10.154;2023-11-21T12:03:02;3.17;;;2.15;;
80409;SDS011;69746;45.596;10.154;2023-11-21T12:05:29;2.88;;;2.20;;
80409;SDS011;69746;45.596;10.154;2023-11-21T12:07:59;3.42;;;2.47;;
80409;SDS011;69746;45.596;10.154;2023-11-21T12:10:27;2.70;;;1.90;;
80409;SDS011;69746;45.596;10.154;2023-11-21T12:13:02;2.65;;;1.77;;
80409;SDS011;69746;45.596;10.154;2023-11-21T12:15:36;3.13;;;2.22;;
80409;SDS011;69746;45.596;10.154;2023-11-21T12:18:04;2.92;;;2.33;;
80409;SDS011;69746;45.596;10.154;2023-11-21T12:20:32;3.78;;;2.72;;
80409;SDS011;69746;45.596;10.154;2023-11-21T12:23:05;3.17;;;1.90;;
80409;SDS011;69746;45.596;10.154;2023-11-21T12:25:31;3.25;;;2.42;;
80409;SDS011;69746;45.596;10.154;2023-11-21T12:28:01;3.13;;;2.50;;
80409;SDS011;69746;45.596;10.154;2023-11-21T12:30:29;3.47;;;2.80;;
80409;SDS011;69746;45.596;10.154;2023-11-21T12:32:57;3.10;;;2.38;;
80409;SDS011;69746;45.596;10.154;2023-11-21T12:35:27;3.30;;;2.33;;
80409;SDS011;69746;45.596;10.154;2023-11-21T12:37:57;3.90;;;2.08;;
80409;SDS011;69746;45.596;10.154;2023-11-21T12:40:24;3.97;;;2.45;;
80409;SDS011;69746;45.596;10.154;2023-11-21T12:42:57;3.10;;;2.20;;
80409;SDS011;69746;45.596;10.154;2023-11-21T12:45:24;3.30;;;2.38;;
80409;SDS011;69746;45.596;10.154;2023-11-21T12:47:59;4.22;;;2.50;;
80409;SDS011;69746;45.596;10.154;2023-11-21T12:50:31;2.67;;;2.00;;
80409;SDS011;69746;45.596;10.154;2023-11-21T12:52:59;3.08;;;2.20;;
80409;SDS011;69746;45.596;10.154;2023-11-21T12:55:30;3.80;;;2.20;;
80409;SDS011;69746;45.596;10.154;2023-11-21T12:58:03;2.55;;;1.73;;
80409;SDS011;69746;45.596;10.154;2023-11-21T13:00:39;3.38;;;2.20;;
80409;SDS011;69746;45.596;10.154;2023-11-21T13:03:09;3.13;;;2.13;;
80409;SDS011;69746;45.596;10.154;2023-11-21T13:05:39;2.50;;;2.08;;
80409;SDS011;69746;45.596;10.154;2023-11-21T13:08:10;2.75;;;2.08;;
80409;SDS011;69746;45.596;10.154;2023-11-21T13:10:39;2.70;;;2.10;;
80409;SDS011;69746;45.596;10.154;2023-11-21T13:13:10;3.47;;;2.58;;
80409;SDS011;69746;45.596;10.154;2023-11-21T13:15:52;3.63;;;2.13;;
80409;SDS011;69746;45.596;10.154;2023-11-21T13:18:21;3.05;;;2.08;;
80409;SDS011;69746;45.596;10.154;2023-11-21T13:20:48;2.60;;;2.03;;
80409;SDS011;69746;45.596;10.154;2023-11-21T13:23:17;3.15;;;2.15;;
80409;SDS011;69746;45.596;10.154;2023-11-21T13:25:43;4.28;;;2.75;;
80409;SDS011;69746;45.596;10.154;2023-11-21T13:28:11;2.85;;;2.10;;
80409;SDS011;69746;45.596;10.154;2023-11-21T13:30:38;2.88;;;2.00;;
80409;SDS011;69746;45.596;10.154;2023-11-21T13:33:06;3.40;;;2.45;;
80409;SDS011;69746;45.596;10.154;2023-11-21T13:35:33;2.63;;;2.00;;
80409;SDS011;69746;45.596;10.154;2023-11-21T13:38:10;3.00;;;2.03;;
80409;SDS011;69746;45.596;10.154;2023-11-21T13:40:38;3.92;;;2.30;;
80409;SDS011;69746;45.596;10.154;2023-11-21T13:43:16;2.88;;;1.90;;
80409;SDS011;69746;45.596;10.154;2023-11-21T13:45:47;3.03;;;2.05;;
80409;SDS011;69746;45.596;10.154;2023-11-21T13:48:27;2.42;;;2.13;;
80409;SDS011;69746;45.596;10.154;2023-11-21T13:51:19;2.83;;;2.28;;
80409;SDS011;69746;45.596;10.154;2023-11-21T13:53:47;3.28;;;2.10;;
80409;SDS011;69746;45.596;10.154;2023-11-21T13:56:18;2.70;;;1.75;;
80409;SDS011;69746;45.596;10.154;2023-11-21T13:58:49;3.10;;;2.10;;
80409;SDS011;69746;45.596;10.154;2023-11-21T14:01:19;3.30;;;2.28;;
80409;SDS011;69746;45.596;10.154;2023-11-21T14:04:01;3.00;;;1.65;;
80409;SDS011;69746;45.596;10.154;2023-11-21T14:06:45;3.03;;;2.10;;
80409;SDS011;69746;45.596;10.154;2023-11-21T14:09:20;3.30;;;2.25;;
80409;SDS011;69746;45.596;10.154;2023-11-21T14:11:51;2.60;;;1.98;;
80409;SDS011;69746;45.596;10.154;2023-11-21T14:14:21;2.70;;;2.20;;
80409;SDS011;69746;45.596;10.154;2023-11-21T14:16:53;3.17;;;2.20;;
80409;SDS011;69746;45.596;10.154;2023-11-21T14:19:21;3.40;;;2.20;;
80409;SDS011;69746;45.596;10.154;2023-11-21T14:21:53;3.42;;;2.08;;
80409;SDS011;69746;45.596;10.154;2023-11-21T14:24:19;3.38;;;2.05;;
80409;SDS011;69746;45.596;10.154;2023-11-21T14:26:46;3.10;;;2.30;;
80409;SDS011;69746;45.596;10.154;2023-11-21T14:29:14;3.33;;;2.45;;
80409;SDS011;69746;45.596;10.154;2023-11-21T14:31:45;2.65;;;2.28;;
80409;SDS011;69746;45.596;10.154;2023-11-21T14:34:12;2.85;;;1.70;;
80409;SDS011;69746;45.596;10.154;2023-11-21T14:39:06;3.97;;;2.00;;
80409;SDS011;69746;45.596;10.154;2023-11-21T14:41:35;3.40;;;2.25;;
80409;SDS011;69746;45.596;10.154;2023-11-21T14:44:03;2.85;;;2.17;;
80409;SDS011;69746;45.596;10.154;2023-11-21T14:46:30;3.30;;;2.22;;
80409;SDS011;69746;45.596;10.154;2023-11-21T14:48:56;3.22;;;2.35;;
80409;SDS011;69746;45.596;10.154;2023-11-21T14:51:40;2.90;;;2.25;;
80409;SDS011;69746;45.596;10.154;2023-11-21T14:54:29;3.08;;;2.33;;
80409;SDS011;69746;45.596;10.154;2023-11-21T14:57:12;2.97;;;2.03;;
80409;SDS011;69746;45.596;10.154;2023-11-21T14:59:47;2.90;;;1.85;;
80409;SDS011;69746;45.596;10.154;2023-11-21T15:02:17;3.00;;;2.13;;
80409;SDS011;69746;45.596;10.154;2023-11-21T15:05:07;3.40;;;1.95;;
80409;SDS011;69746;45.596;10.154;2023-11-21T15:07:39;3.38;;;2.10;;